Time;durP1;ratioP1;P1;durP2;ratioP2;P2;SDS_P1;SDS_P2;PMS_P1;PMS_P2;Temp;Humidity;BMP_temperature;BMP_pressure;BME280_temperature;BME280_humidity;BME280_pressure;Samples;Min_cycle;Max_cycle;Signal;HPM_P1;HPM_P2
2023/02/20 11:57:07;;;;;;;1.70;0.90;;;;;;;16.77;54.48;99828.94;6219105;22;20180;-89
2023/02/20 12:00:08;;;;;;;2.00;1.00;;;;;;;16.95;53.58;99828.59;6290586;22;20204;-90
2023/02/20 12:14:47;;;;;;;2.00;0.97;;;;;;;16.62;51.89;99801.72;6294991;22;20264;-88
2023/02/20 12:17:34;;;;;;;1.80;0.80;;;;;;;16.79;51.88;99809.78;6310559;22;20268;-92
2023/02/20 12:26:21;;;;;;;2.10;0.90;;;;;;;17.00;51.29;99765.56;6271238;22;20733;-91
2023/02/20 12:35:20;;;;;;;1.50;0.90;;;;;;;17.21;50.84;99755.72;6296348;22;20268;-92
2023/02/20 12:37:55;;;;;;;1.37;0.90;;;;;;;17.09;50.19;99751.31;6230419;22;20207;-91
2023/02/20 12:55:39;;;;;;;1.40;0.90;;;;;;;17.53;48.75;99729.41;6304497;22;20709;-91
2023/02/20 12:58:19;;;;;;;1.90;0.80;;;;;;;17.52;48.60;99722.34;6254373;22;20211;-92
2023/02/20 13:00:47;;;;;;;1.30;0.80;;;;;;;17.71;47.56;99722.75;6280328;22;20218;-92
2023/02/20 13:03:23;;;;;;;1.90;1.00;;;;;;;17.66;47.67;99723.53;6254733;22;20203;-92
2023/02/20 13:05:52;;;;;;;1.90;0.80;;;;;;;17.65;46.39;99694.81;6254910;22;20623;-92
2023/02/20 13:08:36;;;;;;;1.13;0.70;;;;;;;17.71;46.66;99684.81;6248559;22;20235;-93
2023/02/20 13:11:08;;;;;;;1.73;0.70;;;;;;;17.91;45.75;99699.28;6199080;22;20212;-93
2023/02/20 13:13:44;;;;;;;1.80;0.80;;;;;;;17.83;45.79;99693.53;6199514;22;20204;-92
2023/02/20 13:16:20;;;;;;;1.23;0.80;;;;;;;17.81;46.01;99703.81;6223012;22;20212;-93
2023/02/20 13:18:55;;;;;;;0.90;0.80;;;;;;;17.89;44.78;99689.75;6223715;22;20214;-91
2023/02/20 13:21:24;;;;;;;1.43;0.60;;;;;;;18.20;44.79;99693.34;6197697;22;20239;-92
2023/02/20 13:23:52;;;;;;;2.20;1.00;;;;;;;18.52;44.13;99688.56;6223341;22;20683;-92
2023/02/20 13:26:34;;;;;;;2.00;0.80;;;;;;;18.69;44.49;99677.47;6198365;22;20216;-93
2023/02/20 13:29:28;;;;;;;2.47;0.73;;;;;;;18.70;42.63;99677.19;6249689;22;20215;-93
2023/02/20 13:31:56;;;;;;;1.93;0.70;;;;;;;18.43;43.14;99666.56;6245080;22;20257;-92
2023/02/20 13:34:28;;;;;;;0.93;0.60;;;;;;;18.76;42.36;99661.72;6223879;22;20216;-93
2023/02/20 13:36:55;;;;;;;1.20;0.53;;;;;;;19.13;42.45;99654.06;6224086;22;20254;-93
2023/02/20 13:39:33;;;;;;;1.67;0.87;;;;;;;19.62;41.43;99648.78;6224037;22;20291;-93
2023/02/20 13:42:07;;;;;;;1.13;0.80;;;;;;;19.86;41.27;99659.81;6224162;22;20238;-93
2023/02/20 13:44:43;;;;;;;1.83;0.77;;;;;;;20.11;39.86;99650.72;6225358;22;20278;-93
2023/02/20 13:47:09;;;;;;;0.80;0.57;;;;;;;19.89;40.85;99651.09;6251252;22;20209;-92
2023/02/20 13:49:54;;;;;;;0.73;0.70;;;;;;;19.72;39.57;99651.47;6301019;22;20196;-92
2023/02/20 13:52:42;;;;;;;0.83;0.60;;;;;;;19.59;39.60;99635.78;6263605;22;20196;-93
2023/02/20 13:55:08;;;;;;;1.80;0.70;;;;;;;19.52;40.36;99634.41;6229314;22;20637;-91
2023/02/20 13:58:11;;;;;;;0.83;0.70;;;;;;;19.14;40.54;99646.72;6302293;22;20236;-90
2023/02/20 14:00:52;;;;;;;1.50;0.70;;;;;;;19.06;41.30;99639.16;6038893;23;20287;-93
2023/02/20 14:03:29;;;;;;;1.27;0.60;;;;;;;18.96;41.03;99636.44;6235467;22;20208;-92
2023/02/20 14:06:15;;;;;;;1.47;0.80;;;;;;;18.88;41.09;99638.66;6250487;22;20211;-93
2023/02/20 14:08:47;;;;;;;1.93;0.80;;;;;;;18.73;41.30;99635.13;6224701;22;20275;-93
2023/02/20 14:11:25;;;;;;;1.13;0.60;;;;;;;18.60;41.81;99647.34;6224385;22;20205;-91
2023/02/20 14:13:54;;;;;;;0.93;0.67;;;;;;;18.55;42.01;99639.19;6249428;22;20225;-93
2023/02/20 14:16:29;;;;;;;1.93;0.80;;;;;;;18.42;42.43;99618.84;6223707;22;20209;-92
2023/02/20 14:19:02;;;;;;;1.37;0.70;;;;;;;18.45;42.05;99620.19;6249246;22;20207;-92
2023/02/20 14:21:29;;;;;;;1.40;0.70;;;;;;;18.50;42.15;99625.59;6224244;22;20219;-93
2023/02/20 14:23:55;;;;;;;1.27;0.70;;;;;;;18.47;42.60;99618.84;6224147;22;20204;-92
2023/02/20 14:26:29;;;;;;;2.33;0.80;;;;;;;18.32;43.33;99613.41;6248733;22;20642;-93
2023/02/20 14:28:58;;;;;;;1.37;0.80;;;;;;;18.24;42.17;99615.84;6198738;22;20204;-92
2023/02/20 14:31:32;;;;;;;1.20;0.60;;;;;;;18.19;42.09;99611.22;6224255;22;20239;-93
2023/02/20 14:33:59;;;;;;;1.33;0.60;;;;;;;18.22;42.21;99615.28;6223642;22;20265;-93
2023/02/20 14:36:35;;;;;;;1.27;0.73;;;;;;;18.00;43.29;99610.94;6248557;22;20200;-90
2023/02/20 14:39:21;;;;;;;1.33;0.70;;;;;;;17.94;42.60;99616.59;6249151;22;20211;-92
2023/02/20 14:41:56;;;;;;;1.50;0.70;;;;;;;17.87;41.51;99597.88;6249058;22;20212;-93
2023/02/20 14:44:24;;;;;;;1.03;0.60;;;;;;;17.79;41.76;99609.25;6198832;22;20257;-93
2023/02/20 14:46:53;;;;;;;1.00;0.53;;;;;;;17.90;40.80;99601.94;6248869;22;20206;-93
2023/02/20 14:49:29;;;;;;;0.43;0.40;;;;;;;17.66;41.34;99598.09;6249172;22;20208;-93
2023/02/20 14:52:10;;;;;;;0.93;0.67;;;;;;;17.73;41.63;99599.44;6199469;22;20212;-93
2023/02/20 14:54:39;;;;;;;0.97;0.57;;;;;;;17.72;41.49;99597.03;6247330;22;20204;-93
2023/02/20 14:57:06;;;;;;;0.93;0.60;;;;;;;17.64;40.75;99590.22;6248889;22;20212;-92
2023/02/20 14:59:35;;;;;;;2.07;0.50;;;;;;;17.71;40.52;99582.66;6197618;22;20203;-93
2023/02/20 15:02:04;;;;;;;0.93;0.50;;;;;;;17.30;41.05;99581.69;6222960;22;20204;-91
2023/02/20 15:04:31;;;;;;;1.00;0.60;;;;;;;17.09;41.33;99580.78;6275976;22;20204;-92
2023/02/20 15:07:03;;;;;;;0.73;0.50;;;;;;;16.93;41.98;99570.13;6249099;22;20210;-92
2023/02/20 15:09:41;;;;;;;1.03;0.53;;;;;;;16.83;42.13;99576.31;6248744;22;20212;-93
2023/02/20 15:12:20;;;;;;;1.60;0.70;;;;;;;16.65;43.19;99582.13;6248268;22;20208;-93
2023/02/20 15:14:53;;;;;;;1.90;0.60;;;;;;;16.54;43.20;99580.41;6249320;22;20208;-92
2023/02/20 15:17:23;;;;;;;1.00;0.50;;;;;;;16.47;43.66;99564.38;6223995;22;20552;-92
2023/02/20 15:19:51;;;;;;;0.73;0.50;;;;;;;16.34;43.94;99570.22;6249292;22;20273;-92
2023/02/20 15:22:39;;;;;;;1.90;0.50;;;;;;;16.23;43.39;99563.13;6223403;22;20212;-92
2023/02/20 15:25:24;;;;;;;1.13;0.53;;;;;;;16.26;41.79;99568.84;6248663;22;20208;-92
2023/02/20 15:28:10;;;;;;;2.43;0.50;;;;;;;16.01;42.78;99557.78;6248334;22;20218;-93
2023/02/20 15:31:11;;;;;;;1.70;0.50;;;;;;;16.04;42.79;99561.88;6222317;22;20649;-92
2023/02/20 15:33:53;;;;;;;1.70;0.53;;;;;;;15.90;42.60;99555.25;6198736;22;20212;-91
2023/02/20 15:36:23;;;;;;;1.10;0.40;;;;;;;15.76;42.83;99552.97;6221827;22;20224;-92
2023/02/20 15:38:55;;;;;;;0.70;0.50;;;;;;;15.86;42.95;99549.56;6222810;22;20228;-92
2023/02/20 15:41:22;;;;;;;0.70;0.50;;;;;;;15.83;42.75;99545.47;6197765;22;20204;-92
2023/02/20 15:43:49;;;;;;;1.20;0.60;;;;;;;15.73;42.50;99548.06;6198527;22;20668;-91
2023/02/20 15:46:19;;;;;;;0.80;0.70;;;;;;;15.80;41.91;99535.19;6222856;22;20204;-91
2023/02/20 15:48:46;;;;;;;1.27;0.50;;;;;;;15.77;41.71;99538.38;6224687;22;20212;-88
2023/02/20 15:51:18;;;;;;;1.80;0.60;;;;;;;15.69;41.54;99540.72;6251931;22;20266;-90
2023/02/20 15:53:45;;;;;;;1.07;0.50;;;;;;;15.60;41.80;99540.38;6248692;22;20200;-91
2023/02/20 15:56:12;;;;;;;0.90;0.60;;;;;;;15.55;41.99;99531.41;6275283;22;20752;-91
2023/02/20 15:58:43;;;;;;;1.07;0.73;;;;;;;15.48;42.13;99534.28;6250802;22;20219;-91
2023/02/20 16:01:11;;;;;;;0.93;0.80;;;;;;;15.42;41.88;99528.00;6200160;22;20212;-90
2023/02/20 16:03:38;;;;;;;0.93;0.60;;;;;;;15.30;42.51;99530.00;6225482;22;20468;-91
2023/02/20 16:06:19;;;;;;;1.97;0.80;;;;;;;15.23;43.12;99537.50;6226778;22;20258;-92
2023/02/20 16:08:49;;;;;;;1.00;0.43;;;;;;;15.28;42.45;99524.06;6228769;22;20211;-88
2023/02/20 16:11:20;;;;;;;0.50;0.50;;;;;;;15.24;42.48;99516.72;6277301;22;20267;-90
2023/02/20 16:13:48;;;;;;;1.80;0.67;;;;;;;15.16;42.61;99512.59;6226504;22;20231;-89
2023/02/20 16:16:17;;;;;;;1.30;0.50;;;;;;;14.99;43.20;99509.97;6250621;22;20207;-90
2023/02/20 16:18:51;;;;;;;1.93;0.70;;;;;;;14.81;43.69;99504.88;6251996;22;20203;-91
2023/02/20 21:46:12;;;;;;;2.43;0.60;;;;;;;14.30;48.17;99351.59;6310865;22;20225;-81
2023/02/20 21:48:39;;;;;;;1.03;0.60;;;;;;;14.36;48.45;99343.38;6329566;22;20213;-81
2023/02/20 21:51:09;;;;;;;1.80;0.70;;;;;;;14.35;48.38;99339.00;6331860;22;20216;-82
